San Aurelio — A8PC9 — position and weather

sailwx.info

Track history (hours):
 
Tides and Currents Weather Stations Pressure Air Temp Water Temp Dewpoint Dewpoint Depression Visibility Wind Speed Wind Dir Waves Ship Positions

San Aurelio

Last reported at 2015-May-25 11:08 UTC. Time now 2015-May-26 01:38 UTC.
Position N 01°10' E 103°48'.

Length 186 m; draft 8.8 m.

Type: Cargo ship. MMSI: 636091534.

Date/timePositionNaut miles runAvg speedWind from/ knotsBaromVisibWave heightAir tempDewpointWater temp
2015-May-25 11:08N 01°10' E 103°48'16 0.4
2015-May-23 22:11N 01°13' E 103°32'16 9.6
2015-May-23 20:29N 01°10' E 103°49'5 5.5
2015-May-23 19:33N 01°15' E 103°52'2 1.8
2015-May-23 18:25N 01°16' E 103°50'0 0.0
2015-May-23 17:22N 01°16' E 103°50'0 0.1
2015-May-23 16:31N 01°16' E 103°50'0 0.0
2015-May-23 15:31N 01°16' E 103°50'0 0.0
2015-May-23 14:31N 01°16' E 103°50'0 0.0
2015-May-23 13:31N 01°16' E 103°50'0 0.0
2015-May-23 12:31N 01°16' E 103°50'0 0.0
2015-May-23 11:28N 01°16' E 103°50'0 0.0
2015-May-23 08:13N 01°16' E 103°50'0 0.0
2015-May-23 07:28N 01°16' E 103°50'0 0.0
2015-May-23 06:31N 01°16' E 103°50'0 0.0
2015-May-23 05:31N 01°16' E 103°50'0 0.0
2015-May-23 04:31N 01°16' E 103°50'0 0.0
2015-May-23 03:16N 01°16' E 103°50'0 0.4
2015-May-23 02:33N 01°16' E 103°50'6 5.6
2015-May-23 01:31N 01°14' E 103°56'38215.0
2015-May-22 00:00N 03°42' E 109°48'28715.9 100 / 61012.010.8 32.025.3
2015-May-21 06:00N 06°00' E 114°00'   200 / 101011.510.8 1.531.024.230.0
2015-May-19 00:00N 06°42' E 125°48'   050 / 61013.010.8 1.028.523.7
Track history (hours):
 
Tides and Currents Weather Stations Pressure Air Temp Water Temp Dewpoint Dewpoint Depression Visibility Wind Speed Wind Dir Waves Ship Positions

San Aurelio

Last reported at 2015-May-25 11:08 UTC. Time now 2015-May-26 01:38 UTC.
Position N 01°10' E 103°48'.

Length 186 m; draft 8.8 m.

Type: Cargo ship. MMSI: 636091534.

Date/timePositionNaut miles runAvg speedWind from/ knotsBaromVisibWave heightAir tempDewpointWater temp
2015-May-25 11:08N 01°10' E 103°48'16 0.4
2015-May-23 22:11N 01°13' E 103°32'16 9.6
2015-May-23 20:29N 01°10' E 103°49'5 5.5
2015-May-23 19:33N 01°15' E 103°52'2 1.8
2015-May-23 18:25N 01°16' E 103°50'0 0.0
2015-May-23 17:22N 01°16' E 103°50'0 0.1
2015-May-23 16:31N 01°16' E 103°50'0 0.0
2015-May-23 15:31N 01°16' E 103°50'0 0.0
2015-May-23 14:31N 01°16' E 103°50'0 0.0
2015-May-23 13:31N 01°16' E 103°50'0 0.0
2015-May-23 12:31N 01°16' E 103°50'0 0.0
2015-May-23 11:28N 01°16' E 103°50'0 0.0
2015-May-23 08:13N 01°16' E 103°50'0 0.0
2015-May-23 07:28N 01°16' E 103°50'0 0.0
2015-May-23 06:31N 01°16' E 103°50'0 0.0
2015-May-23 05:31N 01°16' E 103°50'0 0.0
2015-May-23 04:31N 01°16' E 103°50'0 0.0
2015-May-23 03:16N 01°16' E 103°50'0 0.4
2015-May-23 02:33N 01°16' E 103°50'6 5.6
2015-May-23 01:31N 01°14' E 103°56'38215.0
2015-May-22 00:00N 03°42' E 109°48'28715.9 100 / 61012.010.8 32.025.3
2015-May-21 06:00N 06°00' E 114°00'   200 / 101011.510.8 1.531.024.230.0
2015-May-19 00:00N 06°42' E 125°48'   050 / 61013.010.8 1.028.523.7

Dump ship's entire track history